AUY weather

Aneityum Airport
Anatom Island, Tafea, Vanuatu

Public forecast

Using degrees Celsius for public forecast. Weather courtesy of forecast.io.

Current aviation weather report (METAR) for Aneityum Airport

Retrieved 2019/12/13 03:00 UTC (2 hours ago):

NVVA 130300Z 13004KT 9999 SCT025 28/19 Q1010

Aviation forecast (TAF) for Aneityum Airport

Retrieved 2019-12-13 00:17 UTC (5 hours ago):

TAF NVVA 122220Z 1300/1324 VRB02KT 9999 FEW020